Time;durP1;ratioP1;P1;durP2;ratioP2;P2;SDS_P1;SDS_P2;PMS_P1;PMS_P2;Temp;Humidity;BMP_temperature;BMP_pressure;BME280_temperature;BME280_humidity;BME280_pressure;Samples;Min_cycle;Max_cycle;Signal;HPM_P1;HPM_P2
2022/06/03 00:01:35;;;;;;;14.35;8.00;;;;;;;25.01;100.00;101156.09;4999122;28;20035;-75
2022/06/03 00:04:30;;;;;;;14.77;8.27;;;;;;;24.56;100.00;101148.53;4984200;28;20030;-75
2022/06/03 00:07:55;;;;;;;11.10;8.25;;;;;;;24.68;100.00;101153.94;4999115;28;20121;-75
2022/06/03 00:10:41;;;;;;;12.25;8.15;;;;;;;24.99;100.00;101153.53;4984226;28;20042;-75
2022/06/03 00:13:56;;;;;;;13.80;7.82;;;;;;;25.11;100.00;101158.03;4998961;28;20089;-73
2022/06/03 00:17:11;;;;;;;11.70;7.45;;;;;;;24.81;100.00;101149.47;4984592;28;20403;-74
2022/06/03 00:20:03;;;;;;;12.38;8.20;;;;;;;25.13;100.00;101153.44;4984692;28;20022;-75
2022/06/03 00:23:18;;;;;;;11.05;7.82;;;;;;;24.78;100.00;101154.16;4983775;28;20427;-74
2022/06/03 00:26:34;;;;;;;11.75;7.95;;;;;;;25.07;100.00;101148.47;4975477;28;20048;-74
2022/06/03 00:29:30;;;;;;;10.27;7.38;;;;;;;24.92;100.00;101146.91;4998641;28;20026;-74
2022/06/03 00:32:40;;;;;;;12.77;8.07;;;;;;;24.94;100.00;101150.31;4984580;28;20096;-75
2022/06/03 00:35:59;;;;;;;10.57;7.95;;;;;;;24.87;100.00;101153.53;4998734;28;20371;-74
2022/06/03 00:39:18;;;;;;;14.02;8.55;;;;;;;24.46;100.00;101150.09;4983940;28;20033;-75
2022/06/03 00:42:17;;;;;;;10.27;7.90;;;;;;;24.81;100.00;101153.94;4997931;28;20401;-74
2022/06/03 00:45:28;;;;;;;11.65;7.85;;;;;;;24.69;100.00;101144.06;4998096;28;20033;-74
2022/06/03 00:48:43;;;;;;;10.20;7.88;;;;;;;24.77;100.00;101157.81;4997383;28;20098;-75
2022/06/03 00:52:11;;;;;;;15.48;7.70;;;;;;;24.78;100.00;101149.66;4966319;28;20038;-74
2022/06/03 00:55:32;;;;;;;10.90;8.05;;;;;;;24.37;100.00;101153.41;4983908;28;20041;-75
2022/06/03 00:58:21;;;;;;;11.70;8.40;;;;;;;24.44;100.00;101147.56;4958358;28;20056;-74
2022/06/03 01:01:12;;;;;;;14.20;8.55;;;;;;;24.07;100.00;101145.59;4983607;28;20072;-74
2022/06/03 01:04:24;;;;;;;9.77;8.32;;;;;;;24.41;100.00;101155.78;4996941;28;20375;-75
2022/06/03 01:07:14;;;;;;;13.27;7.97;;;;;;;24.46;100.00;101159.00;4998022;28;20034;-75
2022/06/03 01:10:18;;;;;;;13.30;8.45;;;;;;;24.22;100.00;101159.81;4997373;28;20026;-74
2022/06/03 01:13:27;;;;;;;10.57;7.80;;;;;;;24.45;100.00;101162.66;4997493;28;20030;-74
2022/06/03 01:16:39;;;;;;;11.18;8.93;;;;;;;24.73;100.00;101165.22;4997255;28;20044;-75
2022/06/03 01:20:03;;;;;;;12.65;8.40;;;;;;;24.49;100.00;101158.81;4997517;28;20455;-75
2022/06/03 01:23:07;;;;;;;12.38;8.90;;;;;;;24.16;100.00;101154.84;4900036;29;20044;-74
2022/06/03 01:26:11;;;;;;;10.85;9.00;;;;;;;23.60;100.00;101155.00;4997080;28;20088;-76
2022/06/03 01:29:32;;;;;;;10.68;8.85;;;;;;;23.98;100.00;101151.56;4997052;28;20468;-76
2022/06/03 01:32:40;;;;;;;12.85;8.65;;;;;;;22.96;100.00;101148.31;4996942;28;20032;-74
2022/06/03 01:35:49;;;;;;;13.73;8.45;;;;;;;23.55;100.00;101157.09;4998892;28;20026;-74
2022/06/03 01:39:02;;;;;;;10.23;8.32;;;;;;;23.44;100.00;101149.75;5005488;28;20134;-73
2022/06/03 01:42:17;;;;;;;14.43;9.10;;;;;;;22.63;100.00;101160.19;5008683;28;20443;-76
2022/06/03 01:45:21;;;;;;;13.65;9.25;;;;;;;22.73;100.00;101164.00;5001891;28;20037;-74
2022/06/03 01:48:19;;;;;;;12.60;9.05;;;;;;;23.21;100.00;101159.25;5005653;28;20030;-75
2022/06/03 01:51:27;;;;;;;10.27;8.57;;;;;;;23.52;100.00;101160.84;5004358;28;20034;-75
2022/06/03 01:54:41;;;;;;;14.90;9.30;;;;;;;23.53;100.00;101175.94;4990319;28;20034;-76
2022/06/03 01:58:01;;;;;;;12.35;8.27;;;;;;;23.10;100.00;101183.06;5004729;28;20416;-73
2022/06/03 02:00:57;;;;;;;13.18;9.70;;;;;;;22.96;100.00;101212.47;5004855;28;20046;-72
2022/06/03 02:03:52;;;;;;;15.15;9.23;;;;;;;23.17;100.00;101207.59;4992146;28;20049;-73
2022/06/03 02:07:25;;;;;;;15.07;9.60;;;;;;;23.18;100.00;101214.66;5002291;28;20030;-75
2022/06/03 02:10:38;;;;;;;13.43;9.68;;;;;;;23.08;100.00;101227.72;4997578;28;20041;-75
2022/06/03 02:13:42;;;;;;;15.70;10.13;;;;;;;22.87;100.00;101221.00;4999126;28;20026;-75
2022/06/03 02:16:31;;;;;;;12.57;10.15;;;;;;;22.76;100.00;101220.81;5001811;28;20548;-74
2022/06/03 02:19:53;;;;;;;13.90;10.05;;;;;;;22.90;100.00;101220.84;4999128;28;20443;-74
2022/06/03 02:22:58;;;;;;;13.68;9.23;;;;;;;23.00;100.00;101230.03;4998803;28;20363;-74
2022/06/03 02:25:59;;;;;;;16.63;10.32;;;;;;;22.87;100.00;101231.72;4988575;28;20105;-75
2022/06/03 02:32:35;;;;;;;17.98;10.95;;;;;;;22.97;100.00;101238.25;5002118;28;20100;-74
2022/06/03 02:35:29;;;;;;;14.80;10.68;;;;;;;22.97;100.00;101238.25;5005600;28;20077;-73
2022/06/03 02:38:15;;;;;;;16.27;11.35;;;;;;;23.01;100.00;101242.44;4990559;28;20034;-74
2022/06/03 02:41:36;;;;;;;15.10;10.70;;;;;;;23.13;100.00;101252.41;4990759;28;20037;-73
2022/06/03 02:44:46;;;;;;;14.35;10.77;;;;;;;23.01;100.00;101260.28;5001397;28;20022;-73
2022/06/03 02:48:06;;;;;;;16.33;10.85;;;;;;;22.88;100.00;101262.84;5005183;28;20104;-74
2022/06/03 02:51:13;;;;;;;16.48;11.15;;;;;;;22.86;100.00;101269.22;4993097;28;20080;-74
2022/06/03 02:54:40;;;;;;;18.40;12.00;;;;;;;23.20;100.00;101274.31;5003183;28;20046;-74
2022/06/03 02:57:49;;;;;;;16.98;11.57;;;;;;;23.12;100.00;101281.91;5001199;28;20112;-75
2022/06/03 03:00:53;;;;;;;19.48;12.07;;;;;;;22.93;100.00;101268.78;5006916;28;20053;-74
2022/06/03 03:04:22;;;;;;;18.17;11.57;;;;;;;23.21;100.00;101279.56;5006023;28;20037;-75
2022/06/03 03:07:46;;;;;;;17.05;11.93;;;;;;;22.85;100.00;101284.41;5002909;28;20034;-73
2022/06/03 03:10:35;;;;;;;16.17;11.27;;;;;;;22.79;100.00;101283.91;4989513;28;20046;-75
2022/06/03 03:13:27;;;;;;;21.15;11.60;;;;;;;22.67;100.00;101292.63;4990260;28;20110;-73
2022/06/03 03:16:38;;;;;;;19.38;11.00;;;;;;;22.82;100.00;101289.03;5002925;28;20030;-75
2022/06/03 03:19:39;;;;;;;17.33;10.45;;;;;;;22.68;100.00;101300.56;4988610;28;20061;-74
2022/06/03 03:22:45;;;;;;;13.93;9.35;;;;;;;22.78;100.00;101301.75;4987102;28;20470;-75
2022/06/03 03:25:45;;;;;;;14.55;9.20;;;;;;;22.83;100.00;101309.50;5001877;28;20053;-74
2022/06/03 03:28:55;;;;;;;18.23;8.98;;;;;;;22.76;100.00;101318.81;4998085;28;20034;-74
2022/06/03 03:32:05;;;;;;;15.00;8.77;;;;;;;22.79;100.00;101315.97;4999192;28;20030;-74
2022/06/03 03:35:03;;;;;;;12.98;7.72;;;;;;;22.57;100.00;101311.00;4999633;28;20030;-75
2022/06/03 03:38:04;;;;;;;13.88;7.60;;;;;;;22.53;100.00;101324.59;4997898;28;20058;-73
2022/06/03 03:41:13;;;;;;;15.70;7.63;;;;;;;22.66;100.00;101323.81;4998557;28;20034;-74
2022/06/03 03:44:07;;;;;;;12.98;7.30;;;;;;;22.53;100.00;101329.94;4995767;28;20042;-74
2022/06/03 03:47:13;;;;;;;22.45;6.93;;;;;;;22.45;100.00;101330.34;4996766;28;20030;-75
2022/06/03 03:50:23;;;;;;;18.08;7.00;;;;;;;22.55;100.00;101336.09;4981779;28;20030;-75
2022/06/03 03:53:47;;;;;;;12.68;6.93;;;;;;;22.56;100.00;101333.31;4997599;28;20097;-75
2022/06/03 03:57:21;;;;;;;17.35;6.10;;;;;;;22.96;100.00;101339.88;4996385;28;20148;-73
2022/06/03 04:00:44;;;;;;;11.88;6.68;;;;;;;23.05;100.00;101339.34;4902535;29;20135;-74
2022/06/03 04:03:51;;;;;;;14.70;5.75;;;;;;;22.97;100.00;101358.50;4907471;28;20088;-76
2022/06/03 04:06:51;;;;;;;8.82;6.30;;;;;;;23.07;100.00;101359.69;4999521;28;20022;-74
2022/06/03 04:10:25;;;;;;;9.75;6.00;;;;;;;23.17;100.00;101346.63;4999263;28;20037;-75
2022/06/03 04:13:37;;;;;;;19.75;6.43;;;;;;;23.16;100.00;101360.97;4998919;28;20034;-75
2022/06/03 04:16:34;;;;;;;8.63;6.10;;;;;;;23.01;100.00;101360.06;4998728;28;20042;-74
2022/06/03 04:19:48;;;;;;;8.65;5.47;;;;;;;23.22;100.00;101366.84;4999165;28;20471;-74
2022/06/03 04:23:04;;;;;;;10.38;6.38;;;;;;;23.26;100.00;101367.50;4998333;28;20030;-74
2022/06/03 04:26:28;;;;;;;15.23;6.40;;;;;;;23.42;100.00;101377.22;4984982;28;20042;-76
2022/06/03 04:29:34;;;;;;;10.95;5.70;;;;;;;23.62;100.00;101375.16;4997768;28;20031;-74
2022/06/03 04:32:45;;;;;;;10.07;5.53;;;;;;;23.50;100.00;101375.91;4998383;28;20030;-72
2022/06/03 04:36:13;;;;;;;10.88;5.90;;;;;;;23.07;100.00;101393.59;4999104;28;20026;-73
2022/06/03 04:39:18;;;;;;;8.70;6.30;;;;;;;23.31;100.00;101386.84;4998400;28;20026;-74
2022/06/03 04:42:41;;;;;;;10.07;5.90;;;;;;;23.23;100.00;101394.47;4997544;28;20022;-74
2022/06/03 04:45:46;;;;;;;10.68;6.68;;;;;;;23.42;100.00;101390.59;4997729;28;20037;-73
2022/06/03 04:48:50;;;;;;;13.77;6.25;;;;;;;23.48;100.00;101405.41;4998252;28;20089;-74
2022/06/03 04:52:00;;;;;;;14.38;6.00;;;;;;;23.44;100.00;101396.69;4998175;28;20030;-74
2022/06/03 04:55:01;;;;;;;14.55;6.35;;;;;;;23.70;100.00;101402.31;4997865;28;20049;-73
2022/06/03 04:58:41;;;;;;;13.10;6.20;;;;;;;23.32;100.00;101410.78;4997412;28;20054;-74
2022/06/03 05:01:38;;;;;;;11.70;7.05;;;;;;;23.44;100.00;101414.56;4930076;28;20052;-74
2022/06/03 05:04:42;;;;;;;11.32;6.00;;;;;;;23.55;100.00;101408.59;4997502;28;20106;-73
2022/06/03 05:07:37;;;;;;;14.57;6.07;;;;;;;23.82;100.00;101405.09;4998086;28;20363;-74
2022/06/03 05:10:35;;;;;;;16.23;6.28;;;;;;;23.77;100.00;101414.34;4996088;28;20053;-73
2022/06/03 05:13:32;;;;;;;18.00;6.00;;;;;;;23.68;100.00;101404.19;4997730;28;20033;-74
2022/06/03 05:16:52;;;;;;;10.95;5.90;;;;;;;24.01;100.00;101408.41;4997452;28;20093;-75
2022/06/03 05:20:02;;;;;;;23.63;6.30;;;;;;;23.72;100.00;101398.59;5002308;28;20027;-74
2022/06/03 05:23:08;;;;;;;14.43;6.18;;;;;;;23.77;100.00;101398.28;4999693;28;20026;-73
2022/06/03 05:26:23;;;;;;;11.15;5.90;;;;;;;23.78;100.00;101395.53;4994298;28;20054;-74
2022/06/03 05:29:35;;;;;;;14.18;6.78;;;;;;;24.06;100.00;101408.13;4996517;28;20026;-74
2022/06/03 05:32:33;;;;;;;10.23;5.93;;;;;;;23.85;100.00;101404.03;4982642;28;20025;-75
2022/06/03 05:35:47;;;;;;;12.15;5.80;;;;;;;23.96;100.00;101417.66;4996580;28;20050;-74
2022/06/03 05:38:51;;;;;;;11.05;6.05;;;;;;;24.25;100.00;101408.66;4997271;28;20057;-74
2022/06/03 05:45:27;;;;;;;8.65;6.05;;;;;;;24.32;100.00;101418.91;4996752;28;20034;-75
2022/06/03 05:48:18;;;;;;;10.20;5.85;;;;;;;24.46;100.00;101409.97;4999950;28;20022;-73
2022/06/03 05:51:22;;;;;;;15.45;6.72;;;;;;;24.59;100.00;101410.94;4997120;28;20109;-73
2022/06/03 05:54:30;;;;;;;9.52;5.78;;;;;;;24.77;100.00;101399.91;4982873;28;20038;-73
2022/06/03 05:57:34;;;;;;;11.18;6.00;;;;;;;24.80;100.00;101417.63;4982575;28;20383;-74
2022/06/03 06:00:41;;;;;;;8.52;5.55;;;;;;;24.77;100.00;101416.00;4982560;28;20038;-74
2022/06/03 06:03:38;;;;;;;15.18;5.65;;;;;;;25.29;100.00;101419.69;4995926;28;20033;-74
2022/06/03 06:07:18;;;;;;;13.07;6.03;;;;;;;24.97;100.00;101415.56;4996645;28;20030;-75
2022/06/03 06:10:22;;;;;;;14.10;6.03;;;;;;;24.98;100.00;101413.72;4996169;28;20109;-74
2022/06/03 06:13:22;;;;;;;14.75;6.03;;;;;;;25.06;100.00;101420.31;4996570;28;20066;-76
2022/06/03 06:16:19;;;;;;;10.30;5.78;;;;;;;24.91;100.00;101421.31;4995976;28;20100;-74
2022/06/03 06:19:24;;;;;;;12.63;6.32;;;;;;;25.09;100.00;101424.59;4996044;28;20471;-73
2022/06/03 06:22:25;;;;;;;13.98;5.95;;;;;;;25.29;100.00;101430.41;4981073;28;20030;-73
2022/06/03 06:25:32;;;;;;;19.50;6.18;;;;;;;25.17;100.00;101430.31;4996619;28;20121;-73
2022/06/03 06:28:18;;;;;;;8.73;6.15;;;;;;;25.58;100.00;101431.97;4996048;28;20481;-74
2022/06/03 06:31:27;;;;;;;19.30;6.57;;;;;;;25.49;100.00;101437.09;4996383;28;20025;-75
2022/06/03 06:34:36;;;;;;;11.43;6.55;;;;;;;25.49;100.00;101437.97;4995964;28;20050;-75
2022/06/03 06:37:44;;;;;;;12.60;6.45;;;;;;;25.59;100.00;101435.53;4996231;28;20034;-73
2022/06/03 06:40:54;;;;;;;14.30;6.53;;;;;;;25.80;100.00;101437.56;4981369;28;20033;-74
2022/06/03 06:43:54;;;;;;;13.90;6.13;;;;;;;25.91;100.00;101440.41;4995645;28;20451;-75
2022/06/03 06:47:06;;;;;;;15.25;6.95;;;;;;;26.02;100.00;101443.22;4995697;28;20412;-74
2022/06/03 06:50:14;;;;;;;16.13;6.07;;;;;;;26.12;100.00;101441.59;4996078;28;20034;-75
2022/06/03 06:53:11;;;;;;;11.40;5.72;;;;;;;26.06;100.00;101436.69;4995525;28;20028;-76
2022/06/03 06:56:16;;;;;;;9.93;5.78;;;;;;;25.90;100.00;101444.06;4995709;28;20427;-75
2022/06/03 06:59:14;;;;;;;13.40;6.22;;;;;;;26.42;100.00;101430.50;4995516;28;20050;-73
2022/06/03 07:02:05;;;;;;;13.20;6.10;;;;;;;26.63;100.00;101443.31;4995704;28;20337;-75
2022/06/03 07:05:03;;;;;;;11.88;6.50;;;;;;;26.69;100.00;101444.69;4995179;28;20077;-75
2022/06/03 07:07:56;;;;;;;15.20;5.88;;;;;;;26.60;100.00;101448.88;4999526;28;20026;-75
2022/06/03 07:10:55;;;;;;;14.73;5.82;;;;;;;26.82;100.00;101445.50;4981646;28;20027;-72
2022/06/03 07:14:05;;;;;;;8.35;6.00;;;;;;;26.90;100.00;101448.50;4996736;28;20033;-72
2022/06/03 07:20:32;;;;;;;9.73;5.57;;;;;;;27.04;100.00;101459.94;4995846;28;20412;-73
2022/06/03 07:23:39;;;;;;;12.82;5.95;;;;;;;26.79;100.00;101460.03;4995179;28;20507;-74
2022/06/03 07:26:46;;;;;;;11.70;5.75;;;;;;;26.60;100.00;101456.97;4995843;28;20034;-73
2022/06/03 07:29:41;;;;;;;8.38;5.55;;;;;;;26.58;100.00;101463.41;4995344;28;20049;-74
2022/06/03 07:32:35;;;;;;;12.70;5.72;;;;;;;26.79;100.00;101462.72;4996099;28;20026;-73
2022/06/03 07:35:27;;;;;;;13.45;6.20;;;;;;;26.83;100.00;101463.34;4999203;28;20081;-73
2022/06/03 07:38:22;;;;;;;10.60;5.70;;;;;;;27.45;100.00;101459.59;4999614;28;20018;-75
2022/06/03 07:41:16;;;;;;;13.30;6.28;;;;;;;27.70;100.00;101464.81;4999289;28;20055;-74
2022/06/03 07:44:17;;;;;;;8.02;6.40;;;;;;;26.93;100.00;101465.25;4999088;28;20466;-73
2022/06/03 07:47:08;;;;;;;13.70;6.20;;;;;;;27.25;100.00;101469.16;4998878;28;20041;-73
2022/06/03 07:50:01;;;;;;;9.68;5.88;;;;;;;27.30;100.00;101475.06;4997932;28;20034;-74
2022/06/03 07:52:54;;;;;;;9.55;5.78;;;;;;;27.96;100.00;101465.53;4998833;28;20026;-72
2022/06/03 07:55:40;;;;;;;9.13;5.75;;;;;;;27.97;100.00;101475.34;4998812;28;20046;-73
2022/06/03 07:58:31;;;;;;;8.77;5.90;;;;;;;28.27;100.00;101475.63;4984042;28;20379;-73
2022/06/03 08:01:30;;;;;;;11.50;5.95;;;;;;;29.17;100.00;101473.66;4999044;28;20042;-72
2022/06/03 08:04:34;;;;;;;10.25;5.60;;;;;;;29.56;97.28;101471.16;4999117;28;20041;-73
2022/06/03 08:13:51;;;;;;;7.32;5.43;;;;;;;29.43;98.21;101477.72;4993762;28;20135;-73
2022/06/03 08:16:42;;;;;;;12.75;6.22;;;;;;;29.26;99.29;101473.75;4997288;28;20176;-73
2022/06/03 08:19:34;;;;;;;10.10;6.18;;;;;;;30.03;96.75;101481.53;4998655;28;20073;-73
2022/06/03 08:22:23;;;;;;;11.68;5.60;;;;;;;30.08;93.31;101479.28;4997886;28;20454;-71
2022/06/03 08:25:10;;;;;;;10.23;5.68;;;;;;;29.74;95.91;101485.84;4998313;28;20065;-72
2022/06/03 08:27:59;;;;;;;16.35;6.03;;;;;;;30.28;91.07;101483.84;4970431;28;20049;-71
2022/06/03 08:30:47;;;;;;;8.48;5.30;;;;;;;29.79;95.93;101477.34;4998466;28;20027;-73
2022/06/03 08:33:49;;;;;;;13.95;5.82;;;;;;;30.27;93.65;101470.44;4997965;28;20367;-72
2022/06/03 08:36:40;;;;;;;11.57;5.78;;;;;;;30.26;92.16;101466.88;4998573;28;20450;-72
2022/06/03 08:39:30;;;;;;;9.07;5.40;;;;;;;30.44;91.27;101476.09;4997695;28;20035;-72
2022/06/03 08:42:25;;;;;;;14.90;5.80;;;;;;;30.50;91.19;101461.16;4997320;28;20116;-73
2022/06/03 08:45:42;;;;;;;15.75;5.78;;;;;;;29.88;93.03;101450.41;4997689;28;20023;-79
2022/06/03 08:48:37;;;;;;;9.77;5.90;;;;;;;29.85;93.01;101458.75;4998190;28;20030;-75
2022/06/03 08:51:31;;;;;;;9.07;5.60;;;;;;;30.61;91.18;101455.63;4998170;28;20404;-75
2022/06/03 08:54:26;;;;;;;9.05;5.43;;;;;;;30.63;89.04;101462.66;4998245;28;20022;-76
2022/06/03 08:57:54;;;;;;;11.63;5.28;;;;;;;31.26;85.75;101462.28;4997376;28;20129;-76
2022/06/03 09:01:21;;;;;;;10.13;5.47;;;;;;;30.84;86.53;101465.28;4999402;28;20050;-74
2022/06/03 09:04:24;;;;;;;9.93;5.13;;;;;;;30.78;89.51;101469.41;4997781;28;20026;-75
2022/06/03 09:07:52;;;;;;;11.73;5.43;;;;;;;30.59;89.41;101469.31;4998926;28;20027;-75
2022/06/03 09:10:43;;;;;;;10.13;5.60;;;;;;;30.81;89.38;101471.84;4997471;28;20057;-75
2022/06/03 09:13:47;;;;;;;7.93;5.20;;;;;;;30.70;91.34;101480.06;4998451;28;20086;-74
2022/06/03 09:16:35;;;;;;;10.15;5.40;;;;;;;30.24;94.41;101458.06;4997328;28;20130;-74
2022/06/03 09:19:26;;;;;;;13.32;6.00;;;;;;;30.82;90.85;101457.31;4983141;28;20026;-74
2022/06/03 09:22:19;;;;;;;16.77;6.22;;;;;;;31.45;88.05;101457.88;4996491;28;20077;-74
2022/06/03 09:25:10;;;;;;;14.38;6.32;;;;;;;31.04;88.56;101458.94;4997651;28;20132;-74
2022/06/03 09:27:57;;;;;;;7.18;5.55;;;;;;;31.24;86.28;101456.16;4996290;28;20037;-75
2022/06/03 09:30:45;;;;;;;11.88;5.40;;;;;;;31.22;85.37;101457.25;4997001;28;20030;-74
2022/06/03 09:33:33;;;;;;;9.27;5.70;;;;;;;31.61;85.33;101463.59;4996732;28;20033;-74
2022/06/03 09:36:20;;;;;;;6.63;5.22;;;;;;;30.94;88.76;101458.06;4996451;28;20031;-74
2022/06/03 09:39:11;;;;;;;12.27;5.97;;;;;;;31.19;86.97;101455.66;4996241;28;20053;-75
2022/06/03 09:41:58;;;;;;;7.75;5.72;;;;;;;31.10;88.02;101452.97;4996609;28;20096;-74
2022/06/03 09:44:46;;;;;;;14.82;5.57;;;;;;;31.12;88.98;101448.25;4996997;28;20034;-75
2022/06/03 09:47:34;;;;;;;12.05;5.15;;;;;;;31.01;87.81;101451.09;4997140;28;20022;-74
2022/06/03 09:50:23;;;;;;;12.85;5.95;;;;;;;31.05;88.22;101453.38;4982944;28;20030;-75
2022/06/03 09:53:09;;;;;;;9.13;5.30;;;;;;;31.24;87.79;101453.44;4996118;28;20014;-75
2022/06/03 09:55:59;;;;;;;7.70;5.18;;;;;;;31.15;85.65;101453.41;4983700;28;20030;-75
2022/06/03 09:58:49;;;;;;;16.85;6.40;;;;;;;31.08;88.54;101444.97;4995586;28;20517;-74
2022/06/03 10:01:35;;;;;;;11.48;5.68;;;;;;;30.71;86.82;101443.03;4984016;28;20037;-73
2022/06/03 10:04:23;;;;;;;8.38;5.32;;;;;;;31.01;88.77;101446.53;4997360;28;20057;-74
2022/06/03 10:07:09;;;;;;;6.40;5.50;;;;;;;31.27;86.45;101455.84;4983050;28;20359;-78
2022/06/03 10:13:00;;;;;;;11.57;5.47;;;;;;;31.14;86.00;101457.13;4997039;28;20082;-74
2022/06/03 10:15:53;;;;;;;32.53;17.48;;;;;;;30.63;89.83;101450.97;4996156;28;20026;-75
2022/06/03 10:18:49;;;;;;;27.63;16.67;;;;;;;30.88;89.92;101445.94;4996592;28;20062;-75
2022/06/03 10:21:34;;;;;;;18.88;9.75;;;;;;;30.70;89.46;101442.16;4995780;28;20339;-73
2022/06/03 10:24:34;;;;;;;21.30;8.93;;;;;;;30.61;88.69;101456.50;4995983;28;20030;-74
2022/06/03 10:27:21;;;;;;;20.13;9.10;;;;;;;30.96;89.33;101459.63;4997323;28;20486;-74
2022/06/03 10:30:08;;;;;;;15.45;6.22;;;;;;;31.28;86.37;101456.72;4981779;28;20102;-72
2022/06/03 10:32:55;;;;;;;17.50;7.97;;;;;;;31.45;82.94;101463.31;4995854;28;20040;-72
2022/06/03 10:35:41;;;;;;;9.82;7.40;;;;;;;31.22;82.04;101471.63;4996189;28;20482;-73
2022/06/03 10:38:33;;;;;;;14.15;5.53;;;;;;;30.47;88.68;101462.31;4995647;28;20447;-73
2022/06/03 10:41:21;;;;;;;12.70;5.57;;;;;;;30.78;86.00;101463.16;4995212;28;20022;-73
2022/06/03 10:44:26;;;;;;;7.30;5.18;;;;;;;30.95;88.16;101465.19;4995296;28;20374;-73
2022/06/03 10:47:19;;;;;;;10.57;5.38;;;;;;;31.45;85.31;101460.59;4995911;28;20029;-75
2022/06/03 10:50:09;;;;;;;13.30;8.60;;;;;;;31.33;85.64;101465.25;4996191;28;20581;-75
2022/06/03 11:02:28;;;;;;;16.75;5.25;;;;;;;32.46;79.77;101457.16;4996178;28;20058;-74
2022/06/03 11:05:22;;;;;;;10.82;4.78;;;;;;;32.02;80.26;101445.13;4981801;28;20026;-76
2022/06/03 11:25:12;;;;;;;14.63;5.25;;;;;;;31.11;82.23;101450.09;5770712;22;20125;-75
2022/06/03 11:28:03;;;;;;;8.95;5.70;;;;;;;31.28;82.32;101448.59;4998829;28;20390;-74
2022/06/03 11:31:18;;;;;;;10.30;5.75;;;;;;;30.82;83.25;101442.94;4999472;28;20449;-74
2022/06/03 11:34:18;;;;;;;11.45;5.35;;;;;;;31.38;81.80;101454.88;4994465;28;20509;-74
2022/06/03 11:37:20;;;;;;;7.53;4.80;;;;;;;31.60;80.03;101449.16;4998327;28;20108;-75
2022/06/03 11:40:19;;;;;;;8.32;4.70;;;;;;;31.91;77.63;101449.88;4997088;28;20105;-76
2022/06/03 11:43:15;;;;;;;9.60;5.20;;;;;;;32.14;77.98;101445.84;4998348;28;20026;-75
2022/06/03 11:46:30;;;;;;;13.98;5.15;;;;;;;32.47;76.51;101448.03;4998441;28;20030;-75
2022/06/03 11:49:19;;;;;;;10.25;4.88;;;;;;;31.91;77.79;101441.75;4998017;28;20131;-75
2022/06/03 11:52:05;;;;;;;12.48;5.55;;;;;;;32.10;77.46;101441.69;4997732;28;20037;-75
2022/06/03 11:54:52;;;;;;;9.95;4.68;;;;;;;32.52;75.33;101446.56;4998317;28;20494;-73
2022/06/03 11:57:46;;;;;;;8.70;5.05;;;;;;;32.80;72.93;101448.28;4997460;28;20505;-75
2022/06/03 12:00:38;;;;;;;11.52;5.03;;;;;;;32.95;74.40;101440.50;4998164;28;20058;-75
2022/06/03 12:03:24;;;;;;;11.27;5.28;;;;;;;32.80;73.40;101452.84;4998417;28;20022;-78
2022/06/03 12:06:33;;;;;;;11.10;5.22;;;;;;;32.93;70.92;101456.94;4999341;28;20022;-77
2022/06/03 12:09:46;;;;;;;7.93;4.70;;;;;;;32.06;74.03;101453.84;4997628;28;20096;-77
2022/06/03 12:15:58;;;;;;;13.75;4.85;;;;;;;31.95;70.73;101444.03;4998628;28;20494;-76
2022/06/03 12:19:03;;;;;;;9.93;4.82;;;;;;;31.13;78.53;101439.13;4997596;28;20022;-77
2022/06/03 12:21:53;;;;;;;7.05;4.90;;;;;;;31.04;78.83;101429.16;4997929;28;20046;-77
2022/06/03 12:24:43;;;;;;;8.73;5.20;;;;;;;31.10;79.98;101426.72;4992249;28;20449;-77
2022/06/03 12:27:34;;;;;;;9.60;5.00;;;;;;;32.23;77.12;101420.53;4977797;28;20038;-77
2022/06/03 12:30:35;;;;;;;9.50;5.28;;;;;;;32.56;75.38;101411.84;4977798;28;20042;-77
2022/06/03 12:33:45;;;;;;;20.85;5.63;;;;;;;32.23;76.79;101404.25;4977569;28;20026;-75
2022/06/03 12:36:36;;;;;;;9.35;4.78;;;;;;;32.18;76.63;101398.41;4978218;28;20399;-75
2022/06/03 12:40:04;;;;;;;7.05;4.75;;;;;;;32.42;75.52;101399.63;4978011;28;20061;-75
2022/06/03 12:42:50;;;;;;;9.88;5.18;;;;;;;32.57;72.60;101398.13;4978730;28;20031;-74
2022/06/03 12:45:58;;;;;;;9.50;5.07;;;;;;;32.54;74.48;101397.56;4976341;28;20118;-75
2022/06/03 12:48:45;;;;;;;9.25;4.97;;;;;;;32.72;74.34;101393.03;4976156;28;20062;-75
2022/06/03 12:51:33;;;;;;;10.50;5.10;;;;;;;33.18;71.00;101388.28;4977623;28;20120;-76
2022/06/03 12:54:20;;;;;;;10.15;5.03;;;;;;;33.00;73.20;101400.16;4977471;28;20029;-74
2022/06/03 12:57:09;;;;;;;12.70;5.00;;;;;;;32.78;74.49;101392.44;4977476;28;20115;-76
2022/06/03 13:00:01;;;;;;;9.93;5.22;;;;;;;33.40;72.56;101392.44;4977934;28;20022;-74
2022/06/03 13:03:24;;;;;;;8.40;5.32;;;;;;;33.50;69.25;101395.91;4977878;28;20118;-75
2022/06/03 13:06:10;;;;;;;7.28;4.93;;;;;;;33.13;70.73;101387.03;4979024;28;20041;-74
2022/06/03 13:12:16;;;;;;;8.85;4.90;;;;;;;33.18;72.15;101403.75;4978509;28;20026;-74
2022/06/03 13:15:20;;;;;;;12.52;5.20;;;;;;;32.88;71.85;101398.66;4977680;28;20029;-75
2022/06/03 13:21:03;;;;;;;12.95;4.63;;;;;;;32.38;73.35;101392.78;4977544;28;20367;-74
2022/06/03 13:23:49;;;;;;;8.95;5.07;;;;;;;32.30;73.96;101398.09;4977099;28;20439;-74
2022/06/03 13:26:38;;;;;;;10.93;5.10;;;;;;;32.59;74.45;101390.69;4996959;28;20483;-75
2022/06/03 13:29:52;;;;;;;15.00;5.35;;;;;;;32.57;73.27;101383.69;4996559;28;20057;-73
2022/06/03 13:32:50;;;;;;;14.00;5.00;;;;;;;32.89;70.48;101387.66;4996946;28;20329;-75
2022/06/03 13:35:57;;;;;;;10.88;5.05;;;;;;;32.68;70.60;101388.91;4996543;28;20026;-75
2022/06/03 13:38:45;;;;;;;20.05;5.32;;;;;;;33.36;68.55;101380.16;4997395;28;20039;-75
2022/06/03 13:44:47;;;;;;;16.25;5.32;;;;;;;32.62;71.09;101381.38;4995454;28;20100;-74
2022/06/03 13:47:44;;;;;;;6.78;4.72;;;;;;;32.94;70.14;101384.50;4996029;28;20045;-75
2022/06/03 13:50:35;;;;;;;9.23;4.78;;;;;;;32.12;74.19;101380.00;4996213;28;20121;-75
2022/06/03 13:53:30;;;;;;;13.02;4.68;;;;;;;31.83;73.00;101381.97;4996067;28;20406;-72
2022/06/03 13:56:22;;;;;;;9.98;5.40;;;;;;;32.52;71.87;101384.16;4996378;28;20388;-74
2022/06/03 13:59:15;;;;;;;7.78;4.30;;;;;;;32.34;70.84;101379.69;4995933;28;20541;-74
2022/06/03 14:02:08;;;;;;;10.82;5.10;;;;;;;32.45;69.29;101377.63;4996279;28;20089;-75
2022/06/03 14:04:59;;;;;;;7.75;4.80;;;;;;;32.48;69.77;101381.88;4995592;28;20103;-75
2022/06/03 14:07:59;;;;;;;6.57;4.78;;;;;;;31.77;72.72;101378.00;4996250;28;20081;-75
2022/06/03 14:11:09;;;;;;;11.57;5.00;;;;;;;32.34;71.80;101376.97;4995647;28;20045;-74
2022/06/03 14:14:11;;;;;;;7.20;4.68;;;;;;;32.46;70.47;101387.47;4995288;28;20093;-75
2022/06/03 14:17:26;;;;;;;10.93;4.88;;;;;;;32.32;70.23;101395.25;4995420;28;20026;-76
2022/06/03 14:20:41;;;;;;;8.73;4.80;;;;;;;32.08;68.76;101393.03;4995586;28;20030;-74
2022/06/03 14:23:36;;;;;;;9.18;5.03;;;;;;;32.44;69.45;101391.34;4995463;28;20030;-76
2022/06/03 14:26:34;;;;;;;12.38;5.05;;;;;;;32.24;70.82;101389.69;4976683;28;20043;-76
2022/06/03 14:29:40;;;;;;;7.20;4.95;;;;;;;32.08;72.82;101384.91;4975434;28;20495;-71
2022/06/03 14:32:31;;;;;;;11.85;4.70;;;;;;;31.81;71.27;101382.13;4960164;28;20094;-75
2022/06/03 14:35:33;;;;;;;13.57;4.70;;;;;;;31.55;72.04;101381.00;4974583;28;20111;-73
2022/06/03 14:38:44;;;;;;;7.68;4.65;;;;;;;31.52;72.61;101388.56;4975563;28;20077;-72
2022/06/03 14:41:34;;;;;;;7.40;4.45;;;;;;;31.75;71.66;101385.41;4975246;28;20360;-73
2022/06/03 14:44:25;;;;;;;12.70;4.60;;;;;;;31.95;70.83;101389.81;4975350;28;20437;-73
2022/06/03 14:47:22;;;;;;;7.28;4.90;;;;;;;32.02;69.50;101390.88;4974954;28;20027;-73
2022/06/03 14:50:16;;;;;;;7.75;4.43;;;;;;;31.50;70.31;101398.69;4975444;28;20203;-73